createdAt,value
2022-10-23T00:03:31.907Z,9.42
2022-10-23T00:13:31.856Z,9.4
2022-10-23T00:23:31.894Z,9.36
2022-10-23T00:33:31.834Z,9.37
2022-10-23T00:43:31.890Z,9.36
2022-10-23T00:53:31.873Z,9.44
2022-10-23T01:03:31.903Z,9.46
2022-10-23T01:13:31.941Z,9.53
2022-10-23T01:23:31.863Z,9.56
2022-10-23T01:33:31.868Z,9.61
2022-10-23T01:43:31.835Z,9.68
2022-10-23T01:53:31.958Z,9.76
2022-10-23T02:03:31.971Z,9.76
2022-10-23T02:13:31.815Z,9.79
2022-10-23T02:23:31.825Z,9.67
2022-10-23T02:33:31.821Z,9.72
2022-10-23T02:43:31.827Z,9.76
2022-10-23T02:53:31.833Z,9.79
2022-10-23T03:03:31.831Z,9.72
2022-10-23T03:13:31.801Z,9.7
2022-10-23T03:23:31.809Z,9.7
2022-10-23T03:33:31.783Z,9.76
2022-10-23T03:43:31.790Z,9.76
2022-10-23T03:53:31.769Z,9.74
2022-10-23T04:03:31.799Z,9.73
2022-10-23T04:13:31.772Z,9.75
2022-10-23T04:23:31.795Z,9.74
2022-10-23T04:33:31.771Z,9.75
2022-10-23T04:43:31.791Z,9.77
2022-10-23T04:53:31.741Z,9.81
2022-10-23T05:03:31.768Z,9.77
2022-10-23T05:13:31.730Z,9.78
2022-10-23T05:23:31.764Z,9.84
2022-10-23T05:33:31.736Z,9.87
2022-10-23T05:43:31.752Z,9.9
2022-10-23T05:53:31.719Z,9.97
2022-10-23T06:03:31.724Z,10
2022-10-23T06:13:31.705Z,10.04
2022-10-23T06:23:31.732Z,10.02
2022-10-23T06:33:31.722Z,10.1
2022-10-23T06:43:31.726Z,10.42
2022-10-23T06:53:31.711Z,10.45
2022-10-23T07:03:31.719Z,10.62
2022-10-23T07:13:31.702Z,10.48
2022-10-23T07:23:31.682Z,10.54
2022-10-23T07:33:31.654Z,10.66
2022-10-23T07:53:31.669Z,11.28
2022-10-23T08:03:31.690Z,11.38
2022-10-23T08:13:31.656Z,11.35
2022-10-23T08:23:31.670Z,11.55
2022-10-23T08:33:31.633Z,11.96
2022-10-23T08:43:31.673Z,12
2022-10-23T08:53:31.642Z,12.6
2022-10-23T09:03:31.647Z,12.87
2022-10-23T09:13:31.604Z,12.84
2022-10-23T09:23:31.638Z,13.27
2022-10-23T09:33:31.591Z,13.4
2022-10-23T09:53:31.625Z,14.04
2022-10-23T10:03:31.565Z,14.33
2022-10-23T10:13:31.591Z,15.4
2022-10-23T10:23:31.545Z,16.43
2022-10-23T10:33:31.565Z,17.83
2022-10-23T10:43:31.554Z,17.91
2022-10-23T10:53:31.555Z,18.76
2022-10-23T11:03:33.870Z,19.18
2022-10-23T11:13:31.523Z,18.94
2022-10-23T11:23:31.514Z,19.27
2022-10-23T11:33:31.528Z,17.32
2022-10-23T11:43:31.492Z,16.87
2022-10-23T11:53:31.521Z,17.19
2022-10-23T12:03:31.462Z,17.43
2022-10-23T12:13:31.467Z,17.82
2022-10-23T12:23:31.449Z,17.98
2022-10-23T12:33:31.480Z,17.81
2022-10-23T12:43:31.444Z,17.79
2022-10-23T12:53:31.465Z,17.79
2022-10-23T13:03:31.445Z,17.93
2022-10-23T13:13:31.440Z,17.97
2022-10-23T13:23:31.411Z,18.11
2022-10-23T13:33:31.405Z,18.11
2022-10-23T13:43:31.393Z,18.13
2022-10-23T13:53:31.383Z,18.18
2022-10-23T14:03:31.338Z,18.13
2022-10-23T14:13:31.424Z,18.25
2022-10-23T14:23:31.328Z,18.15
2022-10-23T14:33:31.380Z,18.13
2022-10-23T14:43:31.337Z,18.02
2022-10-23T14:53:31.357Z,17.5
2022-10-23T15:03:31.334Z,16.93
2022-10-23T15:13:31.322Z,16.51
2022-10-23T15:23:31.291Z,16.22
2022-10-23T15:33:31.319Z,15.77
2022-10-23T15:43:31.283Z,15.49
2022-10-23T15:53:31.340Z,15.31
2022-10-23T16:03:31.266Z,15.01
2022-10-23T16:13:31.456Z,14.63
2022-10-23T16:23:31.270Z,14.23
2022-10-23T16:33:31.292Z,13.85
2022-10-23T16:43:31.237Z,13.68
2022-10-23T16:53:31.269Z,13.34
2022-10-23T17:03:31.235Z,13.25
2022-10-23T17:13:31.243Z,13.09
2022-10-23T17:23:31.211Z,12.99
2022-10-23T17:33:31.268Z,13
2022-10-23T17:43:31.199Z,12.83
2022-10-23T17:53:31.216Z,12.71
2022-10-23T18:03:31.186Z,12.53
2022-10-23T18:13:31.216Z,12.32
2022-10-23T18:23:31.173Z,12.26
2022-10-23T18:33:31.223Z,12.23
2022-10-23T18:43:43.041Z,12.08
2022-10-23T18:53:31.195Z,11.96
2022-10-23T19:03:31.165Z,11.99
2022-10-23T19:13:33.127Z,11.83
2022-10-23T19:23:31.151Z,11.73
2022-10-23T19:33:31.172Z,11.66
2022-10-23T19:43:31.137Z,11.57
2022-10-23T19:53:31.156Z,11.53
2022-10-23T20:03:31.130Z,11.46
2022-10-23T20:13:31.151Z,11.55
2022-10-23T20:23:31.116Z,11.71
2022-10-23T20:33:31.153Z,11.74
2022-10-23T20:43:31.101Z,11.75
2022-10-23T20:53:31.129Z,11.59
2022-10-23T21:03:31.093Z,11.48
2022-10-23T21:13:31.124Z,11.46
2022-10-23T21:23:31.104Z,11.35
2022-10-23T21:33:31.106Z,11.15
2022-10-23T21:43:31.079Z,10.99
2022-10-23T21:53:31.091Z,10.97
2022-10-23T22:03:31.068Z,10.9
2022-10-23T22:13:31.089Z,10.75
2022-10-23T22:23:31.073Z,10.74
2022-10-23T22:33:39.105Z,10.69
2022-10-23T22:43:31.038Z,10.72
2022-10-23T22:53:31.072Z,10.67
2022-10-23T23:03:31.092Z,10.61
2022-10-23T23:13:31.042Z,10.6
2022-10-23T23:23:31.021Z,10.56
2022-10-23T23:33:31.050Z,10.46
2022-10-23T23:43:31.033Z,10.44
2022-10-23T23:53:38.125Z,10.34
